Kinston Regional Jetport At Stallings Field
KISO : now visible

Airfield :











YOU CAN JOIN US ON...

 
LOGIN :

Register | Disclaimer

   EN    FR    IT 

 









Legend :    VFR   Marginal VFR   IFR   Intensive IFR   Very Intensive IFR
Visi :
Ceiling :
>= 8 km
>= 3000ft
5 to 8 km
1000 to 3000 ft
1500m to 5 km
500 to 1000 ft
800 to 1500m
200 to 500 ft
< 800m
< 200 ft
Symbols :   Thunderstorms  Fog  Heavy snow  Heavy precipitations  Wind > 20 kt






- Airport Elevation : 93 ft


KISO - Kinston Regional Jetport At Stallings Field

CURRENT METAR :
  • 091833Z 18006KT 7SM OVC003 14/14 A3005

EXPIRED METARs :
  • 091756Z 17006KT 4SM BR OVC003 13/13 A3007
  • 091656Z 22004KT 1SM BR OVC003 12/12 A3010
  • 091614Z 20003KT 3/4SM BR OVC003 12/12 A3013

TAF KISO
Valid from the 09 at 18:00 until the 10 at 18:00 UTC


091723Z 0918/1018 20006KT P6SM OVC090
TEMPO 0918/0920 OVC004
FM100000 19009G14KT P6SM BKN250 WS020/21040KT
FM100300 20010G16KT P6SM BKN250
FM101100 21008G14KT 5SM BR BKN120
FM101300 21009G14KT P6SM BKN120 AMD LTD TO CLD VIS AND WIND



MET'MAP, your aeronautical weather chart ! - Copyright ORBIFLY December 2007 - Disclaimer

ORBIFLY MET'MAP TEAM :

Programming & Development : Alexandra Zaïnal
Concept & original design : Baudouin d'Aumeries
Assistance for programming : Marc-Olivier Méhu
Technical & hardware support : Manuel Goepfert

Contact : metmap@orbifly.com




SOURCES & CREDITS :

   NOAA       Earth
Advisory